Time;durP1;ratioP1;P1;durP2;ratioP2;P2;SDS_P1;SDS_P2;PMS_P1;PMS_P2;Temp;Humidity;BMP_temperature;BMP_pressure;BME280_temperature;BME280_humidity;BME280_pressure;Samples;Min_cycle;Max_cycle;Signal;HPM_P1;HPM_P2
2023/04/04 00:03:36;;;;;;;11.60;3.00;;;;;;;-1.12;77.99;101829.11;218158;1285;138932;-85
2023/04/04 00:08:36;;;;;;;10.20;4.60;;;;;;;-1.22;78.15;101825.35;218719;1285;139026;-85
2023/04/04 00:13:37;;;;;;;9.90;4.10;;;;;;;-1.29;78.85;101817.06;218193;1285;139350;-85
2023/04/04 00:18:38;;;;;;;10.20;3.90;;;;;;;-1.35;79.11;101812.02;218678;1285;139407;-84
2023/04/04 00:23:38;;;;;;;10.30;3.60;;;;;;;-1.40;78.89;101814.33;218139;1285;139164;-85
2023/04/04 00:28:38;;;;;;;18.50;7.20;;;;;;;-1.47;79.14;101812.04;218817;1285;96393;-84
2023/04/04 00:33:39;;;;;;;24.50;7.50;;;;;;;-1.51;79.42;101810.34;218224;1285;139265;-84
2023/04/04 00:38:39;;;;;;;13.50;4.60;;;;;;;-1.55;79.77;101802.88;218755;1285;139096;-84
2023/04/04 00:43:40;;;;;;;11.30;4.20;;;;;;;-1.57;80.35;101800.77;218243;1285;139928;-83
2023/04/04 00:48:41;;;;;;;10.60;3.50;;;;;;;-1.59;80.99;101799.02;218711;1285;139073;-84
2023/04/04 00:53:45;;;;;;;11.20;3.60;;;;;;;-1.59;81.07;101794.48;217989;1287;139667;-82
2023/04/04 00:58:46;;;;;;;8.00;3.80;;;;;;;-1.61;81.67;101795.23;218105;1285;138807;-80
2023/04/04 01:03:46;;;;;;;13.70;3.60;;;;;;;-1.63;81.67;101795.41;216970;1285;139081;-83
2023/04/04 01:08:47;;;;;;;13.20;3.90;;;;;;;-1.63;82.04;101798.68;217027;1285;139327;-82
2023/04/04 01:13:48;;;;;;;13.80;4.30;;;;;;;-1.62;82.79;101797.28;218555;1285;139072;-83
2023/04/04 01:18:50;;;;;;;13.90;4.20;;;;;;;-1.59;82.75;101798.55;217981;1285;139560;-83
2023/04/04 01:24:02;;;;;;;12.80;3.70;;;;;;;-1.56;82.92;101796.88;218494;1285;139059;-83
2023/04/04 01:29:03;;;;;;;9.20;3.50;;;;;;;-1.50;82.90;101789.61;218147;1285;139475;-82
2023/04/04 01:34:12;;;;;;;8.40;3.00;;;;;;;-1.45;82.92;101789.46;218700;1288;96517;-83
2023/04/04 01:39:30;;;;;;;9.70;3.10;;;;;;;-1.38;82.97;101778.15;217992;1285;139043;-83
2023/04/04 01:44:31;;;;;;;7.30;2.30;;;;;;;-1.31;82.97;101771.80;218494;1285;138699;-83
2023/04/04 01:49:32;;;;;;;7.90;2.70;;;;;;;-1.24;83.07;101761.99;218064;1285;139501;-83
2023/04/04 01:54:34;;;;;;;9.90;3.80;;;;;;;-1.18;82.79;101764.77;218569;1285;138970;-83
2023/04/04 01:59:35;;;;;;;11.40;2.90;;;;;;;-1.10;82.71;101761.33;218054;1285;139077;-83
2023/04/04 02:04:36;;;;;;;7.40;2.40;;;;;;;-1.04;82.69;101753.98;218712;1285;96308;-83
2023/04/04 02:09:37;;;;;;;9.20;2.90;;;;;;;-0.97;82.34;101754.27;217916;1288;138656;-83
2023/04/04 02:14:37;;;;;;;7.90;2.80;;;;;;;-0.92;82.31;101751.89;218538;1285;138907;-83
2023/04/04 02:19:38;;;;;;;7.50;2.50;;;;;;;-0.86;82.20;101743.14;218025;1285;139365;-83
2023/04/04 02:24:38;;;;;;;7.70;2.80;;;;;;;-0.81;82.27;101743.95;218547;1285;139233;-83
2023/04/04 02:29:39;;;;;;;7.40;2.80;;;;;;;-0.76;81.82;101746.17;217973;1285;139608;-83
2023/04/04 02:34:39;;;;;;;11.20;3.00;;;;;;;-0.71;81.73;101742.44;218718;1285;96849;-83
2023/04/04 02:39:39;;;;;;;8.60;2.50;;;;;;;-0.68;81.56;101739.25;218067;1285;139140;-84
2023/04/04 02:44:40;;;;;;;8.20;3.10;;;;;;;-0.63;81.84;101730.17;217482;1285;138962;-84
2023/04/04 02:49:40;;;;;;;8.10;3.20;;;;;;;-0.60;81.41;101723.23;217056;1285;138966;-83
2023/04/04 02:54:41;;;;;;;10.10;2.90;;;;;;;-0.56;81.33;101719.83;218506;1285;139686;-84
2023/04/04 02:59:42;;;;;;;9.30;2.70;;;;;;;-0.53;80.78;101711.55;217985;1285;139343;-84
2023/04/04 03:04:42;;;;;;;7.20;2.80;;;;;;;-0.50;80.81;101704.14;218559;1285;96816;-83
2023/04/04 03:09:46;;;;;;;9.80;2.50;;;;;;;-0.47;80.26;101711.22;217966;1285;141031;-84
2023/04/04 03:14:47;;;;;;;5.60;1.90;;;;;;;-0.45;80.42;101712.56;218568;1285;138775;-82
2023/04/04 03:19:47;;;;;;;8.30;2.50;;;;;;;-0.42;79.96;101711.77;217996;1285;138997;-84
2023/04/04 03:24:48;;;;;;;7.40;2.70;;;;;;;-0.41;79.72;101708.50;218537;1285;139288;-83
2023/04/04 03:29:48;;;;;;;6.60;2.40;;;;;;;-0.38;79.50;101704.89;217973;1285;140080;-83
2023/04/04 03:34:48;;;;;;;7.90;2.40;;;;;;;-0.37;79.54;101699.20;218653;1285;97194;-83
2023/04/04 03:39:49;;;;;;;6.20;2.40;;;;;;;-0.37;79.83;101699.89;218001;1290;139158;-84
2023/04/04 03:44:49;;;;;;;6.80;2.00;;;;;;;-0.36;80.12;101694.97;218510;1289;138934;-83
2023/04/04 03:49:51;;;;;;;8.00;2.30;;;;;;;-0.34;80.18;101685.02;217955;1285;141379;-83
2023/04/04 03:54:51;;;;;;;8.00;2.40;;;;;;;-0.35;80.86;101685.77;218610;1285;139373;-83
2023/04/04 03:59:52;;;;;;;9.60;3.20;;;;;;;-0.36;81.37;101680.10;217982;1285;139480;-83
2023/04/04 04:04:52;;;;;;;6.00;2.30;;;;;;;-0.38;81.83;101676.10;218499;1285;106008;-83
2023/04/04 04:09:52;;;;;;;7.30;2.00;;;;;;;-0.41;81.98;101675.13;217641;1288;282024;-83
2023/04/04 04:14:52;;;;;;;6.10;2.00;;;;;;;-0.44;82.87;101679.48;218511;1285;139482;-83
2023/04/04 04:19:53;;;;;;;6.60;1.90;;;;;;;-0.48;83.74;101687.54;217883;1286;139393;-83
2023/04/04 04:24:53;;;;;;;10.90;3.60;;;;;;;-0.50;84.04;101688.89;216819;1285;139240;-83
2023/04/04 04:29:54;;;;;;;10.00;3.00;;;;;;;-0.52;84.36;101685.16;216932;1286;139804;-83
2023/04/04 04:34:55;;;;;;;8.70;3.00;;;;;;;-0.53;84.99;101689.70;218478;1285;97050;-83
2023/04/04 04:39:56;;;;;;;15.30;4.80;;;;;;;-0.56;85.03;101686.30;217881;1285;139232;-84
2023/04/04 04:44:56;;;;;;;15.00;6.80;;;;;;;-0.59;85.16;101683.39;218484;1285;140539;-82
2023/04/04 04:49:56;;;;;;;13.80;7.60;;;;;;;-0.60;85.67;101679.16;217851;1286;139125;-83
2023/04/04 04:54:57;;;;;;;18.80;11.20;;;;;;;-0.60;86.46;101682.36;218478;1285;139240;-82
2023/04/04 04:59:57;;;;;;;18.20;11.00;;;;;;;-0.58;86.40;101687.65;217883;1286;140189;-82
2023/04/04 05:04:58;;;;;;;10.20;5.10;;;;;;;-0.57;86.80;101687.11;218606;1286;97718;-82
2023/04/04 05:09:58;;;;;;;9.90;4.10;;;;;;;-0.52;87.11;101688.58;217956;1285;138832;-82
2023/04/04 05:14:58;;;;;;;7.20;2.70;;;;;;;-0.46;87.48;101693.80;218464;1286;138698;-83
2023/04/04 05:19:59;;;;;;;9.50;2.40;;;;;;;-0.40;87.68;101694.92;217987;1285;139703;-81
2023/04/04 05:25:00;;;;;;;13.80;5.50;;;;;;;-0.33;87.82;101694.70;218555;1288;138852;-83
2023/04/04 05:30:00;;;;;;;10.90;5.40;;;;;;;-0.25;88.10;101692.73;218030;1285;139960;-82
2023/04/04 05:35:00;;;;;;;10.00;2.80;;;;;;;-0.16;88.10;101695.14;218539;1286;96430;-81
2023/04/04 05:40:01;;;;;;;9.10;3.10;;;;;;;-0.07;88.08;101696.52;218015;1286;140473;-81
2023/04/04 05:45:01;;;;;;;7.80;3.00;;;;;;;0.03;88.02;101695.02;218520;1285;138812;-80
2023/04/04 05:50:01;;;;;;;7.40;2.60;;;;;;;0.15;87.91;101698.33;217788;1286;138957;-81
2023/04/04 05:55:02;;;;;;;11.90;3.10;;;;;;;0.26;88.15;101704.83;218426;1285;138420;-81
2023/04/04 06:00:08;;;;;;;8.70;2.40;;;;;;;0.38;87.86;101700.96;217988;1286;139018;-81
2023/04/04 06:05:09;;;;;;;16.00;3.60;;;;;;;0.52;88.00;101710.39;216616;1286;138531;-81
2023/04/04 06:10:10;;;;;;;8.40;3.30;;;;;;;0.65;88.01;101707.60;217566;1287;139451;-80
2023/04/04 06:15:10;;;;;;;8.40;2.70;;;;;;;0.82;87.92;101706.20;218350;1285;138416;-81
2023/04/04 06:20:11;;;;;;;9.10;2.70;;;;;;;0.95;87.44;101703.87;217833;1286;139179;-81
2023/04/04 06:25:13;;;;;;;12.70;3.60;;;;;;;1.09;87.20;101699.74;218390;1286;138512;-80
2023/04/04 06:30:15;;;;;;;11.90;2.90;;;;;;;1.22;86.25;101691.02;217902;1286;139406;-80
2023/04/04 06:35:16;;;;;;;10.10;3.10;;;;;;;1.29;86.06;101687.39;218463;1288;138924;-80
2023/04/04 06:40:16;;;;;;;9.90;2.90;;;;;;;1.40;85.57;101689.50;217992;1286;139332;-81
2023/04/04 06:45:17;;;;;;;8.10;2.70;;;;;;;1.53;85.17;101684.21;218445;1286;139195;-81
2023/04/04 06:50:17;;;;;;;10.50;3.00;;;;;;;1.68;84.45;101689.07;218099;1285;138954;-83
2023/04/04 06:55:18;;;;;;;9.40;2.90;;;;;;;1.82;83.83;101687.98;218603;1288;138923;-83
2023/04/04 07:00:19;;;;;;;12.10;3.70;;;;;;;1.94;83.92;101687.73;217870;1288;138783;-83
2023/04/04 07:05:19;;;;;;;13.50;3.00;;;;;;;2.17;84.01;101687.41;218691;1285;138632;-82
2023/04/04 07:10:20;;;;;;;7.60;2.30;;;;;;;2.37;83.22;101685.84;217938;1286;139726;-83
2023/04/04 07:15:21;;;;;;;8.80;2.00;;;;;;;2.54;82.93;101677.77;218644;1285;138897;-84
2023/04/04 07:20:22;;;;;;;5.10;2.10;;;;;;;2.76;81.99;101674.52;218120;1286;140408;-84
2023/04/04 07:25:22;;;;;;;7.20;1.70;;;;;;;2.97;80.97;101673.27;218647;1286;139650;-84
2023/04/04 07:30:26;;;;;;;7.20;1.80;;;;;;;3.23;80.16;101670.87;218035;1285;139064;-85
2023/04/04 07:35:27;;;;;;;4.60;1.30;;;;;;;3.43;78.08;101667.63;218638;1285;139227;-85
2023/04/04 07:40:27;;;;;;;7.30;1.70;;;;;;;3.56;76.62;101664.94;218257;1285;138736;-84
2023/04/04 07:45:28;;;;;;;5.90;1.70;;;;;;;3.60;75.81;101667.48;217098;1288;138924;-85
2023/04/04 07:50:28;;;;;;;5.00;1.30;;;;;;;3.61;74.57;101673.78;217895;1285;139512;-86
2023/04/04 07:55:28;;;;;;;6.40;1.50;;;;;;;3.55;73.88;101676.07;218581;1287;138916;-85
2023/04/04 08:00:29;;;;;;;5.50;1.40;;;;;;;3.47;73.10;101671.92;218057;1286;139006;-85
2023/04/04 08:05:30;;;;;;;4.90;1.40;;;;;;;3.40;72.58;101674.33;218614;1285;138601;-85
2023/04/04 08:10:30;;;;;;;4.30;1.50;;;;;;;3.38;72.77;101671.05;218252;1285;139337;-86
2023/04/04 08:15:31;;;;;;;6.60;2.30;;;;;;;3.43;73.14;101667.36;218616;1288;138878;-86
2023/04/04 08:20:31;;;;;;;6.30;1.40;;;;;;;3.66;73.76;101654.46;218010;1286;138859;-85
2023/04/04 08:25:33;;;;;;;9.20;2.00;;;;;;;3.94;73.54;101656.63;218581;1286;138506;-86
2023/04/04 08:30:34;;;;;;;7.60;1.30;;;;;;;4.08;71.12;101657.77;218165;1285;139003;-86
2023/04/04 08:35:35;;;;;;;9.20;2.00;;;;;;;4.07;69.26;101660.23;218701;1285;138473;-87
2023/04/04 08:40:37;;;;;;;5.20;1.50;;;;;;;4.02;69.08;101663.88;218304;1285;139066;-85
2023/04/04 08:45:40;;;;;;;4.70;1.40;;;;;;;4.19;70.38;101656.23;218617;1285;138428;-86
2023/04/04 08:50:44;;;;;;;4.50;1.50;;;;;;;4.59;69.69;101656.77;218119;1285;138412;-86
2023/04/04 08:55:44;;;;;;;6.00;1.40;;;;;;;4.64;66.98;101653.98;218580;1285;138727;-86
2023/04/04 09:00:44;;;;;;;4.30;1.40;;;;;;;4.58;65.65;101653.44;218118;1285;139583;-85
2023/04/04 09:05:45;;;;;;;8.70;2.90;;;;;;;4.53;66.54;101648.72;218699;1285;138620;-90
2023/04/04 09:10:48;;;;;;;5.20;1.80;;;;;;;4.66;66.75;101639.40;218184;1286;138714;-85
2023/04/04 09:15:51;;;;;;;4.80;1.20;;;;;;;4.80;66.71;101637.17;218710;1285;138775;-85
2023/04/04 09:20:51;;;;;;;6.00;1.50;;;;;;;4.92;66.48;101635.30;218067;1286;138984;-85
2023/04/04 09:25:53;;;;;;;4.70;1.30;;;;;;;4.98;64.75;101637.54;217552;1285;139576;-87
2023/04/04 09:30:54;;;;;;;5.10;1.30;;;;;;;4.94;64.77;101634.26;217383;1285;139233;-88
2023/04/04 09:35:57;;;;;;;5.10;1.70;;;;;;;4.97;64.53;101638.45;218406;1288;139092;-85
2023/04/04 09:40:58;;;;;;;3.80;1.30;;;;;;;5.04;64.70;101639.25;218094;1285;139125;-86
2023/04/04 09:45:59;;;;;;;7.30;1.90;;;;;;;5.16;65.59;101639.88;218645;1285;138613;-86
2023/04/04 09:51:03;;;;;;;9.90;3.40;;;;;;;5.22;64.30;101631.91;218068;1285;139618;-86
2023/04/04 09:56:05;;;;;;;7.40;2.20;;;;;;;5.22;64.45;101635.84;218644;1285;137881;-86
2023/04/04 10:01:08;;;;;;;9.20;2.10;;;;;;;5.36;65.55;101634.20;218120;1285;138057;-86
2023/04/04 10:06:09;;;;;;;9.90;2.70;;;;;;;5.48;63.91;101636.42;218650;1285;138763;-86
2023/04/04 10:11:10;;;;;;;4.40;1.20;;;;;;;5.56;63.19;101637.86;218237;1285;138871;-86
2023/04/04 10:16:12;;;;;;;5.40;1.80;;;;;;;5.51;62.05;101635.45;218888;1285;96541;-86
2023/04/04 10:21:12;;;;;;;4.00;1.40;;;;;;;5.39;61.13;101644.57;218049;1285;137816;-86
2023/04/04 10:26:13;;;;;;;6.80;1.40;;;;;;;5.19;60.13;101643.62;218536;1285;138098;-85
2023/04/04 10:31:26;;;;;;;5.90;1.50;;;;;;;5.11;61.39;101637.48;218232;1285;138054;-85
2023/04/04 10:36:30;;;;;;;5.60;1.20;;;;;;;5.22;61.72;101628.80;218675;1285;139031;-86
2023/04/04 10:41:31;;;;;;;7.30;1.70;;;;;;;5.31;60.80;101626.65;218270;1285;138651;-87
2023/04/04 10:46:33;;;;;;;5.10;1.60;;;;;;;5.14;60.16;101622.63;218845;1285;105797;-86
2023/04/04 10:51:34;;;;;;;5.60;1.80;;;;;;;5.43;62.36;101615.36;217979;1285;139621;-88
2023/04/04 10:56:35;;;;;;;5.70;1.40;;;;;;;5.92;62.33;101607.55;218707;1285;137795;-86
2023/04/04 11:01:57;;;;;;;8.30;3.00;;;;;;;6.31;63.09;101596.12;218135;1285;138641;-87
2023/04/04 11:07:08;;;;;;;7.40;2.10;;;;;;;6.47;58.80;101600.64;218238;1285;138026;-86
2023/04/04 11:12:18;;;;;;;5.70;1.60;;;;;;;6.22;58.53;101599.69;216858;1285;138860;-86
2023/04/04 11:17:39;;;;;;;3.50;1.70;;;;;;;6.29;60.20;101592.52;218557;1285;137663;-85
2023/04/04 11:22:41;;;;;;;5.50;1.30;;;;;;;6.74;60.91;101581.64;218239;1285;138228;-86
2023/04/04 11:27:41;;;;;;;4.10;1.80;;;;;;;7.02;59.68;101573.40;218705;1285;137765;-86
2023/04/04 11:32:46;;;;;;;5.30;1.60;;;;;;;7.11;59.63;101568.19;218175;1285;138637;-86
2023/04/04 11:37:49;;;;;;;5.80;1.80;;;;;;;7.13;58.16;101564.68;218565;1285;137851;-84
2023/04/04 11:42:51;;;;;;;5.90;2.00;;;;;;;7.23;58.66;101555.30;218235;1284;138559;-85
2023/04/04 11:47:52;;;;;;;7.30;2.40;;;;;;;7.44;59.24;101547.84;218587;1284;139227;-85
2023/04/04 11:52:53;;;;;;;3.80;1.40;;;;;;;7.84;57.60;101539.67;218211;1285;138284;-86
2023/04/04 11:57:57;;;;;;;5.50;1.70;;;;;;;8.02;58.21;101539.95;218682;1285;137961;-86
2023/04/04 12:02:57;;;;;;;4.70;1.10;;;;;;;8.28;56.53;101533.14;218035;1285;138411;-85
2023/04/04 12:08:00;;;;;;;5.40;1.50;;;;;;;8.36;57.21;101536.33;218734;1284;137999;-86
2023/04/04 12:13:04;;;;;;;8.60;2.10;;;;;;;8.55;56.83;101531.39;218155;1285;138053;-85
2023/04/04 12:18:09;;;;;;;7.20;2.90;;;;;;;8.64;56.12;101531.33;218600;1285;138176;-87
2023/04/04 12:23:09;;;;;;;9.00;1.90;;;;;;;8.52;54.88;101534.73;218189;1285;138274;-86
2023/04/04 12:28:10;;;;;;;6.60;1.90;;;;;;;8.25;54.98;101531.98;218742;1285;107057;-86
2023/04/04 12:33:11;;;;;;;9.30;2.30;;;;;;;8.24;55.42;101522.79;218205;1284;137867;-86
2023/04/04 12:38:15;;;;;;;8.30;1.90;;;;;;;8.28;55.06;101511.74;218694;1285;137906;-86
2023/04/04 12:43:17;;;;;;;6.80;2.20;;;;;;;8.27;55.38;101506.70;218128;1285;137935;-85
2023/04/04 12:48:17;;;;;;;10.10;2.30;;;;;;;8.31;54.18;101494.84;218655;1285;137797;-83
2023/04/04 12:53:28;;;;;;;7.60;2.20;;;;;;;8.23;54.40;101487.39;216684;1285;138782;-85
2023/04/04 12:58:29;;;;;;;5.40;1.50;;;;;;;8.49;54.29;101479.76;218506;1285;104034;-86
2023/04/04 13:03:30;;;;;;;7.60;2.10;;;;;;;8.53;53.41;101474.11;218018;1285;137872;-85
2023/04/04 13:08:30;;;;;;;6.50;2.70;;;;;;;8.61;53.57;101465.70;218579;1286;137654;-84
2023/04/04 13:13:39;;;;;;;18.10;5.60;;;;;;;8.73;53.38;101461.35;218137;1285;138424;-86
2023/04/04 13:18:42;;;;;;;9.30;2.80;;;;;;;8.85;53.59;101453.43;218628;1285;138015;-86
2023/04/04 13:23:42;;;;;;;9.60;2.70;;;;;;;8.86;52.02;101447.58;217940;1285;138075;-87
2023/04/04 13:28:43;;;;;;;7.80;2.40;;;;;;;8.82;52.95;101436.79;218732;1285;96841;-86
2023/04/04 13:33:43;;;;;;;8.40;2.20;;;;;;;8.84;52.64;101435.45;218084;1285;138953;-86
2023/04/04 13:38:44;;;;;;;9.90;3.20;;;;;;;8.78;52.29;101431.63;218719;1285;137966;-85
2023/04/04 13:43:44;;;;;;;12.80;3.90;;;;;;;8.76;52.51;101424.25;218064;1285;138033;-86
2023/04/04 13:48:45;;;;;;;7.00;2.50;;;;;;;8.73;51.53;101421.40;218284;1288;138629;-84
2023/04/04 13:53:45;;;;;;;5.80;1.60;;;;;;;8.61;51.37;101417.61;217850;1285;138418;-89
2023/04/04 13:58:46;;;;;;;6.90;2.10;;;;;;;8.63;51.31;101416.94;217917;1285;138457;-86
2023/04/04 14:03:47;;;;;;;6.40;1.90;;;;;;;8.67;51.24;101412.09;218377;1285;138231;-86
2023/04/04 14:08:47;;;;;;;7.70;2.90;;;;;;;8.74;50.97;101408.59;217943;1285;138429;-87
2023/04/04 14:13:50;;;;;;;6.00;2.30;;;;;;;8.78;50.86;101394.67;218438;1287;138192;-87
2023/04/04 14:18:51;;;;;;;5.10;1.40;;;;;;;8.81;51.05;101394.77;218014;1285;138249;-88
2023/04/04 14:23:51;;;;;;;5.40;2.00;;;;;;;8.68;50.86;101392.14;218285;1285;138484;-88
2023/04/04 14:28:51;;;;;;;7.70;2.60;;;;;;;8.65;50.77;101387.58;218122;1285;138373;-87
2023/04/04 14:33:52;;;;;;;10.10;4.40;;;;;;;8.68;51.05;101383.30;218453;1285;138690;-87
2023/04/04 14:38:53;;;;;;;12.50;4.00;;;;;;;8.67;51.09;101378.79;216545;1285;139229;-86
2023/04/04 14:43:54;;;;;;;8.70;2.40;;;;;;;8.69;51.50;101373.98;218496;1285;138780;-86
2023/04/04 14:48:54;;;;;;;9.60;3.10;;;;;;;8.68;51.23;101375.75;218135;1285;138178;-88
2023/04/04 14:53:55;;;;;;;9.20;3.80;;;;;;;8.52;50.86;101369.89;218658;1285;138053;-87
2023/04/04 14:58:55;;;;;;;9.40;4.20;;;;;;;8.42;51.31;101370.02;218166;1285;138359;-86
2023/04/04 15:03:56;;;;;;;25.70;12.40;;;;;;;8.42;52.43;101371.05;218688;1285;137717;-85
2023/04/04 15:08:57;;;;;;;9.10;3.40;;;;;;;8.41;51.24;101366.83;218010;1285;138742;-86
2023/04/04 15:13:57;;;;;;;20.40;9.50;;;;;;;8.25;51.84;101360.80;218617;1285;138753;-86
2023/04/04 15:18:59;;;;;;;14.30;7.20;;;;;;;8.21;52.02;101361.64;218111;1287;138806;-85
2023/04/04 15:23:59;;;;;;;70.60;33.80;;;;;;;8.13;51.24;101352.13;218729;1285;138368;-86
2023/04/04 15:29:00;;;;;;;18.10;7.80;;;;;;;8.00;52.29;101347.81;218345;1285;138880;-85
2023/04/04 15:34:00;;;;;;;13.90;7.00;;;;;;;7.93;51.34;101344.04;218657;1285;138081;-85
2023/04/04 15:39:01;;;;;;;8.70;2.50;;;;;;;7.77;50.56;101351.95;218077;1285;138573;-86
2023/04/04 15:44:01;;;;;;;9.60;2.80;;;;;;;7.63;50.72;101344.93;218646;1288;138005;-86
2023/04/04 15:49:02;;;;;;;11.40;5.30;;;;;;;7.52;50.42;101343.82;218207;1285;138194;-86
2023/04/04 15:54:03;;;;;;;8.50;3.10;;;;;;;7.37;50.63;101338.79;218531;1285;138123;-85
2023/04/04 15:59:04;;;;;;;10.90;5.00;;;;;;;7.29;51.19;101336.38;218147;1285;139719;-84
2023/04/04 16:04:05;;;;;;;5.40;2.10;;;;;;;7.31;51.91;101333.31;218735;1285;107048;-85
2023/04/04 16:09:05;;;;;;;8.90;2.40;;;;;;;7.20;51.33;101330.14;218201;1285;138338;-86
2023/04/04 16:14:08;;;;;;;5.40;2.10;;;;;;;7.10;51.32;101331.61;218610;1285;153828;-85
2023/04/04 16:19:09;;;;;;;9.10;3.60;;;;;;;7.09;53.08;101332.91;217076;1285;138710;-85
2023/04/04 16:24:09;;;;;;;8.30;2.90;;;;;;;7.06;53.64;101332.36;217837;1285;138381;-84
2023/04/04 16:29:10;;;;;;;9.90;3.80;;;;;;;7.06;53.93;101323.66;218041;1285;160640;-85
2023/04/04 16:34:10;;;;;;;8.40;3.40;;;;;;;6.96;53.05;101319.25;218722;1285;96753;-85
2023/04/04 16:39:10;;;;;;;8.90;2.80;;;;;;;6.87;53.96;101322.02;218122;1285;137843;-86
2023/04/04 16:44:11;;;;;;;11.70;3.60;;;;;;;6.77;53.19;101321.22;218654;1285;138787;-86
2023/04/04 16:49:11;;;;;;;14.20;4.80;;;;;;;6.67;53.56;101323.23;218113;1285;138380;-86
2023/04/04 16:54:12;;;;;;;13.30;4.40;;;;;;;6.62;54.14;101324.83;218586;1285;138191;-86
2023/04/04 16:59:12;;;;;;;16.00;5.20;;;;;;;6.52;53.83;101322.39;218164;1285;138452;-85
2023/04/04 17:04:14;;;;;;;9.20;4.00;;;;;;;6.38;53.95;101321.59;218558;1285;96938;-86
2023/04/04 17:09:14;;;;;;;10.80;4.20;;;;;;;6.31;55.15;101319.30;218037;1285;138072;-86
2023/04/04 17:14:15;;;;;;;15.00;5.40;;;;;;;6.24;55.23;101318.08;218728;1285;138515;-84
2023/04/04 17:19:15;;;;;;;11.30;3.80;;;;;;;6.15;55.98;101311.36;218187;1285;138476;-85
2023/04/04 17:24:15;;;;;;;9.40;3.70;;;;;;;6.10;56.87;101312.33;218645;1285;137986;-86
2023/04/04 17:29:17;;;;;;;11.60;4.20;;;;;;;6.03;57.18;101309.30;218089;1285;138101;-84
2023/04/04 17:34:17;;;;;;;12.30;4.20;;;;;;;5.95;57.24;101311.06;218761;1285;96316;-86
2023/04/04 17:39:18;;;;;;;12.00;4.20;;;;;;;5.86;57.47;101315.15;218188;1285;138412;-86
2023/04/04 17:44:19;;;;;;;19.30;8.20;;;;;;;5.75;57.50;101318.00;218587;1285;138821;-86
2023/04/04 17:49:20;;;;;;;18.90;8.20;;;;;;;5.60;57.14;101315.70;218024;1287;138814;-85
2023/04/04 17:54:21;;;;;;;14.00;5.00;;;;;;;5.41;57.29;101313.81;218568;1285;138612;-86
2023/04/04 17:59:23;;;;;;;13.40;6.30;;;;;;;5.18;56.90;101314.45;218024;1286;138787;-86
2023/04/04 18:04:24;;;;;;;16.40;7.40;;;;;;;4.97;57.99;101313.92;216997;1285;97935;-85
2023/04/04 18:09:25;;;;;;;21.00;8.60;;;;;;;4.79;58.18;101316.80;217980;1285;138116;-86
2023/04/04 18:14:25;;;;;;;26.20;11.00;;;;;;;4.60;59.13;101313.05;218652;1285;137872;-86
2023/04/04 18:19:26;;;;;;;34.00;12.60;;;;;;;4.41;59.22;101316.64;218006;1285;139324;-86
2023/04/04 18:24:26;;;;;;;33.90;12.90;;;;;;;4.19;60.13;101314.97;218643;1285;138746;-86
2023/04/04 18:29:29;;;;;;;33.70;13.10;;;;;;;4.01;61.02;101317.16;218030;1285;138872;-86
2023/04/04 18:34:30;;;;;;;38.80;15.40;;;;;;;3.89;62.68;101320.20;218720;1288;96191;-86
2023/04/04 18:39:30;;;;;;;43.20;18.50;;;;;;;3.80;62.95;101324.89;218193;1285;140211;-86
2023/04/04 18:44:31;;;;;;;36.30;15.70;;;;;;;3.71;64.02;101323.39;218650;1285;138506;-86
2023/04/04 18:49:32;;;;;;;26.00;12.20;;;;;;;3.61;62.76;101330.23;218171;1285;138676;-85
2023/04/04 18:54:32;;;;;;;23.20;10.50;;;;;;;3.49;63.10;101329.36;218749;1288;138361;-86
2023/04/04 18:59:33;;;;;;;21.70;9.10;;;;;;;3.39;64.05;101331.66;217968;1285;138511;-86
2023/04/04 19:04:34;;;;;;;26.50;11.10;;;;;;;3.28;63.46;101335.23;218700;1285;96530;-86
2023/04/04 19:09:36;;;;;;;29.30;12.00;;;;;;;3.21;65.13;101337.09;218103;1285;138072;-86
2023/04/04 19:14:37;;;;;;;29.30;11.80;;;;;;;3.15;64.89;101337.66;218536;1285;138083;-86
2023/04/04 19:19:37;;;;;;;34.10;11.30;;;;;;;3.05;65.26;101331.08;217972;1285;139361;-85
2023/04/04 19:24:42;;;;;;;69.40;24.00;;;;;;;2.92;65.35;101331.74;218726;1285;138517;-85
2023/04/04 19:29:42;;;;;;;214.00;69.00;;;;;;;2.80;65.73;101333.52;218009;1285;138456;-86
2023/04/04 19:34:43;;;;;;;195.10;54.40;;;;;;;2.69;65.79;101334.56;218734;1285;96383;-86
2023/04/04 19:39:44;;;;;;;56.20;17.60;;;;;;;2.62;65.98;101335.02;218123;1285;138666;-86
2023/04/04 19:44:44;;;;;;;27.20;11.80;;;;;;;2.54;67.19;101337.67;217617;1285;138359;-86
2023/04/04 19:49:52;;;;;;;31.60;12.70;;;;;;;2.53;67.60;101343.09;217229;1285;138345;-85
2023/04/04 19:54:52;;;;;;;35.70;15.00;;;;;;;2.50;67.34;101342.10;218542;1285;138538;-85
2023/04/04 20:00:09;;;;;;;67.60;24.40;;;;;;;2.44;67.99;101343.20;218059;1285;138279;-85
2023/04/04 20:05:45;;;;;;;111.70;40.00;;;;;;;2.40;68.83;101348.56;218515;1285;138573;-86
2023/04/04 20:10:45;;;;;;;72.90;32.90;;;;;;;2.38;68.88;101346.32;218104;1288;138564;-87
2023/04/04 20:15:46;;;;;;;42.40;20.80;;;;;;;2.35;68.25;101346.95;218655;1285;139612;-87
2023/04/04 20:20:55;;;;;;;43.90;19.10;;;;;;;2.30;68.88;101344.89;218003;1285;138930;-87
2023/04/04 20:26:03;;;;;;;39.50;17.30;;;;;;;2.25;69.20;101346.71;218588;1285;138702;-88
2023/04/04 20:31:06;;;;;;;43.60;18.50;;;;;;;2.18;68.98;101350.42;218048;1285;139389;-88
2023/04/04 20:36:11;;;;;;;39.20;16.30;;;;;;;2.09;69.06;101347.11;218623;1285;140495;-88
2023/04/04 20:41:15;;;;;;;40.80;17.70;;;;;;;1.96;69.81;101340.77;218085;1285;138636;-86
2023/04/04 20:46:15;;;;;;;31.70;14.90;;;;;;;1.82;70.40;101346.43;218797;1285;96964;-88
2023/04/04 20:51:28;;;;;;;33.60;15.80;;;;;;;1.67;71.27;101345.88;218190;1285;138056;-88
2023/04/04 20:56:40;;;;;;;29.70;13.50;;;;;;;1.55;71.51;101344.70;218628;1285;139547;-86
2023/04/04 21:01:41;;;;;;;29.60;13.00;;;;;;;1.43;70.94;101346.89;218055;1289;139361;-86
2023/04/04 21:06:41;;;;;;;45.60;18.60;;;;;;;1.32;71.92;101343.59;218719;1285;139587;-86
2023/04/04 21:11:42;;;;;;;33.00;15.90;;;;;;;1.24;71.88;101342.13;218088;1285;140254;-85
2023/04/04 21:16:43;;;;;;;28.70;14.20;;;;;;;1.15;72.29;101337.70;218724;1288;96923;-85
2023/04/04 21:21:43;;;;;;;40.60;17.50;;;;;;;1.07;72.93;101340.52;218172;1284;139200;-85
2023/04/04 21:26:43;;;;;;;65.60;24.90;;;;;;;1.01;73.49;101344.29;217657;1286;139233;-86
2023/04/04 21:31:45;;;;;;;49.00;18.70;;;;;;;0.96;73.58;101340.73;217448;1285;139696;-85
2023/04/04 21:36:47;;;;;;;33.70;14.90;;;;;;;0.93;73.90;101337.74;218599;1285;138884;-86
2023/04/04 21:41:56;;;;;;;37.70;16.80;;;;;;;0.91;74.54;101336.30;217949;1285;140821;-85
2023/04/04 21:46:57;;;;;;;37.50;16.70;;;;;;;0.87;74.68;101340.16;218685;1285;97034;-86
2023/04/04 21:51:57;;;;;;;40.70;19.20;;;;;;;0.87;76.04;101336.08;217984;1286;139557;-86
2023/04/04 21:56:57;;;;;;;35.20;15.30;;;;;;;0.89;76.21;101335.85;218545;1287;139856;-86
2023/04/04 22:01:58;;;;;;;30.40;13.40;;;;;;;0.88;76.22;101332.86;217954;1285;138984;-86
2023/04/04 22:06:58;;;;;;;29.70;12.60;;;;;;;0.89;76.38;101330.47;218613;1285;139873;-86
2023/04/04 22:12:01;;;;;;;24.70;11.80;;;;;;;0.92;76.99;101328.54;218059;1285;140482;-86
2023/04/04 22:17:02;;;;;;;23.10;10.50;;;;;;;0.93;76.71;101324.14;218766;1285;96377;-86
2023/04/04 22:22:02;;;;;;;25.80;12.20;;;;;;;0.94;76.59;101323.90;218138;1285;138834;-86
2023/04/04 22:27:04;;;;;;;26.30;10.60;;;;;;;0.96;77.18;101320.94;218707;1285;138995;-85
2023/04/04 22:32:04;;;;;;;33.40;11.80;;;;;;;0.98;77.13;101313.00;218125;1285;139976;-86
2023/04/04 22:37:05;;;;;;;27.60;12.10;;;;;;;1.00;77.36;101308.76;218712;1286;139248;-86
2023/04/04 22:42:05;;;;;;;112.30;34.00;;;;;;;1.02;77.57;101309.27;218151;1286;139857;-85
2023/04/04 22:47:06;;;;;;;97.10;32.00;;;;;;;1.02;77.62;101307.36;218738;1288;139854;-85
2023/04/04 22:52:09;;;;;;;71.20;25.20;;;;;;;1.03;78.06;101302.53;218106;1286;139200;-86